createdAt,value
2018-09-27T00:02:28.003Z,3.93
2018-09-27T00:04:57.153Z,2.87
2018-09-27T00:07:26.692Z,2.23
2018-09-27T00:09:55.859Z,3.00
2018-09-27T00:12:24.996Z,1.70
2018-09-27T00:14:54.344Z,2.77
2018-09-27T00:17:23.483Z,6.27
2018-09-27T00:19:52.666Z,2.77
2018-09-27T00:22:22.211Z,4.77
2018-09-27T00:24:51.346Z,4.37
2018-09-27T00:27:20.457Z,3.33
2018-09-27T00:29:50.059Z,4.13
2018-09-27T00:32:19.212Z,3.80
2018-09-27T00:34:48.337Z,4.00
2018-09-27T00:37:17.742Z,4.27
2018-09-27T00:39:46.916Z,4.03
2018-09-27T00:42:16.086Z,3.30
2018-09-27T00:44:45.553Z,4.63
2018-09-27T00:47:14.706Z,3.20
2018-09-27T00:49:43.834Z,4.13
2018-09-27T00:52:12.941Z,2.57
2018-09-27T00:54:42.001Z,2.90
2018-09-27T00:57:10.973Z,2.57
2018-09-27T00:59:40.238Z,2.03
2018-09-27T01:02:09.187Z,1.80
2018-09-27T01:04:38.159Z,3.07
2018-09-27T01:07:07.535Z,2.63
2018-09-27T01:09:36.544Z,2.60
2018-09-27T01:12:05.540Z,1.87
2018-09-27T01:14:34.830Z,3.17
2018-09-27T01:17:03.795Z,2.17
2018-09-27T01:19:32.890Z,2.03
2018-09-27T01:22:02.007Z,3.47
2018-09-27T01:24:30.941Z,3.33
2018-09-27T01:26:59.933Z,2.13
2018-09-27T01:29:29.035Z,2.20
2018-09-27T01:31:57.992Z,2.50
2018-09-27T01:34:26.993Z,2.63
2018-09-27T01:36:56.336Z,1.43
2018-09-27T01:39:25.272Z,1.83
2018-09-27T01:41:54.251Z,1.50
2018-09-27T01:44:23.621Z,1.87
2018-09-27T01:46:52.556Z,2.23
2018-09-27T01:49:21.528Z,1.43
2018-09-27T01:51:50.609Z,5.03
2018-09-27T01:54:19.624Z,3.70
2018-09-27T01:56:48.587Z,2.73
2018-09-27T01:59:17.856Z,1.53
2018-09-27T02:01:46.901Z,5.07
2018-09-27T02:04:15.918Z,1.67
2018-09-27T02:06:45.196Z,3.90
2018-09-27T02:09:14.167Z,2.60
2018-09-27T02:11:43.132Z,1.50
2018-09-27T02:14:12.255Z,1.53
2018-09-27T02:16:41.244Z,1.67
2018-09-27T02:19:10.197Z,2.10
2018-09-27T02:21:39.494Z,4.40
2018-09-27T02:24:08.468Z,3.07
2018-09-27T02:26:37.415Z,2.60
2018-09-27T02:29:06.722Z,1.97
2018-09-27T02:31:35.662Z,2.33
2018-09-27T02:34:04.608Z,1.43
2018-09-27T02:36:33.812Z,5.60
2018-09-27T02:39:02.822Z,3.10
2018-09-27T02:41:31.881Z,2.37
2018-09-27T02:44:01.106Z,2.53
2018-09-27T02:46:30.068Z,2.73
2018-09-27T02:48:59.014Z,1.57
2018-09-27T02:51:28.123Z,2.03
2018-09-27T02:53:57.054Z,2.20
2018-09-27T02:56:26.124Z,3.10
2018-09-27T02:58:55.263Z,1.30
2018-09-27T03:01:24.242Z,4.40
2018-09-27T03:03:53.336Z,1.50
2018-09-27T03:06:22.339Z,1.53
2018-09-27T03:08:51.302Z,1.60
2018-09-27T03:14:13.817Z,2.47
2018-09-27T03:16:42.756Z,1.40
2018-09-27T03:19:11.708Z,2.93
2018-09-27T03:21:40.856Z,3.53
2018-09-27T03:24:09.810Z,4.07
2018-09-27T03:26:38.759Z,3.30
2018-09-27T03:29:08.036Z,2.47
2018-09-27T03:31:37.020Z,5.00
2018-09-27T03:34:06.008Z,1.97
2018-09-27T03:36:35.289Z,2.57
2018-09-27T03:39:05.078Z,3.67
2018-09-27T03:41:34.075Z,5.13
2018-09-27T03:44:03.207Z,2.20
2018-09-27T03:46:32.186Z,4.93
2018-09-27T03:49:01.140Z,3.97
2018-09-27T03:51:30.406Z,2.83
2018-09-27T03:53:59.332Z,3.73
2018-09-27T03:56:30.276Z,3.73
2018-09-27T03:59:01.528Z,7.40
2018-09-27T04:01:30.482Z,4.47
2018-09-27T04:03:59.432Z,3.97
2018-09-27T04:06:28.696Z,3.80
2018-09-27T04:08:57.650Z,2.90
2018-09-27T04:11:26.639Z,2.70
2018-09-27T04:13:55.766Z,2.93
2018-09-27T04:16:24.847Z,5.17
2018-09-27T04:18:53.820Z,2.10
2018-09-27T04:21:22.957Z,2.13
2018-09-27T04:23:51.858Z,3.07
2018-09-27T04:26:20.783Z,4.23
2018-09-27T04:28:50.095Z,3.93
2018-09-27T04:31:19.037Z,3.63
2018-09-27T04:33:48.006Z,3.23
2018-09-27T04:36:17.103Z,3.90
2018-09-27T04:38:46.042Z,3.13
2018-09-27T04:41:14.990Z,6.37
2018-09-27T04:43:44.078Z,22.17
2018-09-27T04:46:13.056Z,12.20
2018-09-27T04:48:41.982Z,9.23
2018-09-27T04:51:11.246Z,6.40
2018-09-27T04:53:40.243Z,4.93
2018-09-27T04:56:09.188Z,5.17
2018-09-27T04:58:38.311Z,2.40
2018-09-27T05:01:07.327Z,4.63
2018-09-27T05:03:36.358Z,3.67
2018-09-27T05:06:05.681Z,3.30
2018-09-27T05:08:34.655Z,7.57
2018-09-27T05:11:03.610Z,4.23
2018-09-27T05:13:32.698Z,3.73
2018-09-27T05:16:01.671Z,4.87
2018-09-27T05:18:30.664Z,3.57
2018-09-27T05:21:00.903Z,4.40
2018-09-27T05:23:30.754Z,7.67
2018-09-27T05:26:00.546Z,4.17
2018-09-27T05:28:29.737Z,9.73
2018-09-27T05:30:59.098Z,5.10
2018-09-27T05:33:28.888Z,5.50
2018-09-27T05:35:58.482Z,8.57
2018-09-27T05:38:27.543Z,5.13
2018-09-27T05:40:56.584Z,7.47
2018-09-27T05:43:25.879Z,3.17
2018-09-27T05:45:54.989Z,3.50
2018-09-27T05:48:24.014Z,6.23
2018-09-27T05:50:53.330Z,2.87
2018-09-27T05:53:22.310Z,3.20
2018-09-27T05:55:51.426Z,4.27
2018-09-27T05:58:20.774Z,6.80
2018-09-27T06:00:49.817Z,7.33
2018-09-27T06:03:18.929Z,2.77
2018-09-27T06:05:48.113Z,4.73
2018-09-27T06:08:17.122Z,5.93
2018-09-27T06:10:46.123Z,4.07
2018-09-27T06:13:15.418Z,5.97
2018-09-27T06:15:44.372Z,5.13
2018-09-27T06:18:13.342Z,6.17
2018-09-27T06:20:42.728Z,10.80
2018-09-27T06:23:11.680Z,6.20
2018-09-27T06:25:40.634Z,8.63
2018-09-27T06:28:09.906Z,5.10
2018-09-27T06:30:38.859Z,8.40
2018-09-27T06:33:07.834Z,7.87
2018-09-27T06:35:37.002Z,7.30
2018-09-27T06:38:05.963Z,12.77
2018-09-27T06:40:34.913Z,6.23
2018-09-27T06:43:04.025Z,5.80
2018-09-27T06:45:32.992Z,7.57
2018-09-27T06:48:01.994Z,6.30
2018-09-27T06:50:31.147Z,9.03
2018-09-27T06:53:00.092Z,8.67
2018-09-27T06:55:29.195Z,9.83
2018-09-27T06:57:58.170Z,8.60
2018-09-27T07:00:27.136Z,5.57
2018-09-27T07:02:56.114Z,7.53
2018-09-27T07:05:25.493Z,8.50
2018-09-27T07:07:54.494Z,6.20
2018-09-27T07:10:23.452Z,7.50
2018-09-27T07:12:52.594Z,7.27
2018-09-27T07:15:21.557Z,6.43
2018-09-27T07:17:50.502Z,6.83
2018-09-27T07:20:19.840Z,5.50
2018-09-27T07:22:48.823Z,4.20
2018-09-27T07:25:17.872Z,7.20
2018-09-27T07:27:46.907Z,5.40
2018-09-27T07:30:15.908Z,12.63
2018-09-27T07:32:44.926Z,6.13
2018-09-27T07:35:14.214Z,10.43
2018-09-27T07:37:43.167Z,7.87
2018-09-27T07:40:12.153Z,5.47
2018-09-27T07:42:41.367Z,4.13
2018-09-27T07:45:10.306Z,4.67
2018-09-27T07:47:39.289Z,7.00
2018-09-27T07:50:08.576Z,4.83
2018-09-27T07:52:37.541Z,5.70
2018-09-27T07:55:06.670Z,4.50
2018-09-27T07:57:35.840Z,3.50
2018-09-27T08:00:04.878Z,4.80
2018-09-27T08:02:33.916Z,3.07
2018-09-27T08:05:03.252Z,2.53
2018-09-27T08:07:32.193Z,4.67
2018-09-27T08:10:01.176Z,3.63
2018-09-27T08:12:30.447Z,3.27
2018-09-27T08:14:59.397Z,1.97
2018-09-27T08:17:28.421Z,4.23
2018-09-27T08:19:57.752Z,4.33
2018-09-27T08:22:26.766Z,3.87
2018-09-27T08:24:55.727Z,1.97
2018-09-27T08:27:24.851Z,1.77
2018-09-27T08:29:53.816Z,3.03
2018-09-27T08:32:22.819Z,2.20
2018-09-27T08:34:51.916Z,1.80
2018-09-27T08:37:20.899Z,2.17
2018-09-27T08:39:49.884Z,3.57
2018-09-27T08:42:19.211Z,1.67
2018-09-27T08:44:48.375Z,1.57
2018-09-27T08:47:17.340Z,1.80
2018-09-27T08:49:46.708Z,1.30
2018-09-27T08:52:15.773Z,2.13
2018-09-27T08:54:44.813Z,1.33
2018-09-27T08:57:13.908Z,1.67
2018-09-27T08:59:43.014Z,2.50
2018-09-27T09:02:12.113Z,3.77
2018-09-27T09:04:41.505Z,1.83
2018-09-27T09:07:10.561Z,2.27
2018-09-27T09:09:39.683Z,2.03
2018-09-27T09:12:09.196Z,1.77
2018-09-27T09:14:38.264Z,1.57
2018-09-27T09:17:07.463Z,2.37
2018-09-27T09:19:36.921Z,1.77
2018-09-27T09:22:06.043Z,1.60
2018-09-27T09:24:35.188Z,1.33
2018-09-27T09:27:04.404Z,1.57
2018-09-27T09:29:33.589Z,2.53
2018-09-27T09:32:02.591Z,2.33
2018-09-27T09:34:31.971Z,3.40
2018-09-27T09:37:01.015Z,3.67
2018-09-27T09:39:30.063Z,1.97
2018-09-27T09:41:59.264Z,3.43
2018-09-27T09:44:28.312Z,2.80
2018-09-27T09:46:57.538Z,4.30
2018-09-27T09:49:26.781Z,1.60
2018-09-27T09:51:56.434Z,2.60
2018-09-27T09:54:25.498Z,1.40
2018-09-27T09:56:54.983Z,3.90
2018-09-27T09:59:24.073Z,1.80
2018-09-27T10:01:53.156Z,1.80
2018-09-27T10:04:22.526Z,1.80
2018-09-27T10:06:51.574Z,3.27
2018-09-27T10:09:20.625Z,2.73
2018-09-27T10:11:49.724Z,2.33
2018-09-27T10:14:18.891Z,2.77
2018-09-27T10:16:47.957Z,2.60
2018-09-27T10:19:17.060Z,2.83
2018-09-27T10:21:46.169Z,1.77
2018-09-27T10:24:15.540Z,1.87
2018-09-27T10:26:44.687Z,2.50
2018-09-27T10:29:13.781Z,2.90
2018-09-27T10:31:42.817Z,2.57
2018-09-27T10:34:12.224Z,2.77
2018-09-27T10:36:41.278Z,1.60
2018-09-27T10:39:12.106Z,4.93
2018-09-27T10:41:42.058Z,5.10
2018-09-27T10:44:11.127Z,2.37
2018-09-27T10:46:40.239Z,3.33
2018-09-27T10:49:09.654Z,3.90
2018-09-27T10:51:38.791Z,3.43
2018-09-27T10:54:07.931Z,1.70
2018-09-27T10:56:37.159Z,2.37
2018-09-27T10:59:06.448Z,3.40
2018-09-27T11:01:35.517Z,4.37
2018-09-27T11:04:04.993Z,1.97
2018-09-27T11:06:34.088Z,3.63
2018-09-27T11:09:03.329Z,4.03
2018-09-27T11:11:34.201Z,1.83
2018-09-27T11:14:03.269Z,1.97
2018-09-27T11:16:32.398Z,2.73
2018-09-27T11:19:01.917Z,4.87
2018-09-27T11:21:31.007Z,2.90
2018-09-27T11:24:00.074Z,2.37
2018-09-27T11:26:29.516Z,3.20
2018-09-27T11:29:03.646Z,3.73
2018-09-27T11:33:42.522Z,1.87
2018-09-27T11:36:12.047Z,4.43
2018-09-27T11:38:41.181Z,2.37
2018-09-27T11:41:10.548Z,2.37
2018-09-27T11:43:39.664Z,2.47
2018-09-27T11:46:08.776Z,4.13
2018-09-27T11:48:38.217Z,1.87
2018-09-27T11:51:07.492Z,4.10
2018-09-27T11:53:36.754Z,1.80
2018-09-27T11:56:06.253Z,2.93
2018-09-27T11:58:35.389Z,3.57
2018-09-27T12:01:04.535Z,1.67
2018-09-27T12:03:33.942Z,3.17
2018-09-27T12:06:03.031Z,4.73
2018-09-27T12:08:32.097Z,2.37
2018-09-27T12:11:01.543Z,4.43
2018-09-27T12:13:30.688Z,2.90
2018-09-27T12:16:00.426Z,5.60
2018-09-27T12:18:29.657Z,4.93
2018-09-27T12:20:58.730Z,4.43
2018-09-27T12:23:27.767Z,3.67
2018-09-27T12:25:57.162Z,3.77
2018-09-27T12:28:26.216Z,2.13
2018-09-27T12:30:54.120Z,3.77
2018-09-27T12:33:24.996Z,1.83
2018-09-27T12:35:54.066Z,3.03
2018-09-27T12:38:23.132Z,3.63
2018-09-27T12:40:52.503Z,7.40
2018-09-27T12:43:21.533Z,3.23
2018-09-27T12:45:50.572Z,2.43
2018-09-27T12:48:19.978Z,2.33
2018-09-27T12:50:50.000Z,5.17
2018-09-27T12:53:19.058Z,2.87
2018-09-27T12:55:48.637Z,5.43
2018-09-27T12:58:17.708Z,1.77
2018-09-27T13:00:46.782Z,3.33
2018-09-27T13:03:17.547Z,4.20
2018-09-27T13:05:46.609Z,3.93
2018-09-27T13:08:16.275Z,1.90
2018-09-27T13:10:45.768Z,2.00
2018-09-27T13:13:14.898Z,3.33
2018-09-27T13:15:43.896Z,1.80
2018-09-27T13:18:13.115Z,2.20
2018-09-27T13:20:42.238Z,2.97
2018-09-27T13:23:11.611Z,5.23
2018-09-27T13:25:41.018Z,4.23
2018-09-27T13:28:10.035Z,2.77
2018-09-27T13:30:39.099Z,3.03
2018-09-27T13:33:09.358Z,2.33
2018-09-27T13:35:38.377Z,2.77
2018-09-27T13:38:07.454Z,3.83
2018-09-27T13:40:38.338Z,2.70
2018-09-27T13:43:07.572Z,3.93
2018-09-27T13:45:36.572Z,2.20
2018-09-27T13:48:05.774Z,3.37
2018-09-27T13:50:34.895Z,2.87
2018-09-27T13:53:03.985Z,3.87
2018-09-27T13:55:33.356Z,4.37
2018-09-27T13:58:02.430Z,4.30
2018-09-27T14:00:31.502Z,3.23
2018-09-27T14:03:00.908Z,4.13
2018-09-27T14:05:30.023Z,2.50
2018-09-27T14:07:59.028Z,4.83
2018-09-27T14:10:28.452Z,2.80
2018-09-27T14:12:57.538Z,2.40
2018-09-27T14:15:26.611Z,2.67
2018-09-27T14:17:55.956Z,4.60
2018-09-27T14:20:25.009Z,2.40
2018-09-27T14:22:54.062Z,6.20
2018-09-27T14:25:23.293Z,3.60
2018-09-27T14:27:52.305Z,2.27
2018-09-27T14:30:21.301Z,2.43
2018-09-27T14:32:50.912Z,2.27
2018-09-27T14:35:19.993Z,2.37
2018-09-27T14:37:49.065Z,3.20
2018-09-27T14:40:18.441Z,2.87
2018-09-27T14:42:47.527Z,3.10
2018-09-27T14:45:16.542Z,4.73
2018-09-27T14:47:46.015Z,2.70
2018-09-27T14:50:15.055Z,5.53
2018-09-27T14:52:44.187Z,2.40
2018-09-27T14:55:13.567Z,4.53
2018-09-27T14:57:42.632Z,2.93
2018-09-27T15:00:11.729Z,4.57
2018-09-27T15:02:40.850Z,2.50
2018-09-27T15:05:09.952Z,3.83
2018-09-27T15:07:39.149Z,2.40
2018-09-27T15:10:09.239Z,3.30
2018-09-27T15:12:38.349Z,2.53
2018-09-27T15:15:07.799Z,5.53
2018-09-27T15:17:38.006Z,3.73
2018-09-27T15:20:07.342Z,3.13
2018-09-27T15:22:36.524Z,3.53
2018-09-27T15:25:06.258Z,2.17
2018-09-27T15:27:35.417Z,4.27
2018-09-27T15:30:05.102Z,2.00
2018-09-27T15:32:34.568Z,3.83
2018-09-27T15:35:03.668Z,1.77
2018-09-27T15:37:32.766Z,6.67
2018-09-27T15:40:02.200Z,2.90
2018-09-27T15:42:31.334Z,2.17
2018-09-27T15:45:00.412Z,2.83
2018-09-27T15:47:29.782Z,2.43
2018-09-27T15:49:58.862Z,2.03
2018-09-27T15:52:27.944Z,3.27
2018-09-27T15:54:57.356Z,8.03
2018-09-27T15:57:26.435Z,8.40
2018-09-27T15:59:55.863Z,12.40
2018-09-27T16:02:25.219Z,8.80
2018-09-27T16:04:54.364Z,13.07
2018-09-27T16:07:23.425Z,9.10
2018-09-27T16:09:52.908Z,4.63
2018-09-27T16:12:21.997Z,6.27
2018-09-27T16:14:51.145Z,6.73
2018-09-27T16:17:20.357Z,10.17
2018-09-27T16:19:49.468Z,5.70
2018-09-27T16:22:18.602Z,10.70
2018-09-27T16:24:47.753Z,9.60
2018-09-27T16:27:16.856Z,5.20
2018-09-27T16:29:46.039Z,7.57
2018-09-27T16:32:15.436Z,22.87
2018-09-27T16:34:44.543Z,21.93
2018-09-27T16:37:13.670Z,16.90
2018-09-27T16:39:43.122Z,12.27
2018-09-27T16:42:12.804Z,9.30
2018-09-27T16:44:41.899Z,6.47
2018-09-27T16:47:11.225Z,8.57
2018-09-27T16:49:40.324Z,11.93
2018-09-27T16:52:09.458Z,13.33
2018-09-27T16:54:38.937Z,9.80
2018-09-27T16:57:09.117Z,4.33
2018-09-27T16:59:38.242Z,5.63
2018-09-27T17:02:07.875Z,11.73
2018-09-27T17:04:36.984Z,3.20
2018-09-27T17:07:06.107Z,6.30
2018-09-27T17:09:35.586Z,5.37
2018-09-27T17:12:04.709Z,2.17
2018-09-27T17:14:33.824Z,3.07
2018-09-27T17:17:03.416Z,3.67
2018-09-27T17:19:33.095Z,2.97
2018-09-27T17:22:02.194Z,3.27
2018-09-27T17:24:31.660Z,6.80
2018-09-27T17:27:00.754Z,4.83
2018-09-27T17:29:29.912Z,4.77
2018-09-27T17:31:59.147Z,2.10
2018-09-27T17:34:30.260Z,1.97
2018-09-27T17:36:59.347Z,2.27
2018-09-27T17:39:28.608Z,2.43
2018-09-27T17:41:57.708Z,5.03
2018-09-27T17:44:26.851Z,3.30
2018-09-27T17:46:56.282Z,5.80
2018-09-27T17:49:25.660Z,5.87
2018-09-27T17:51:54.777Z,2.10
2018-09-27T17:54:24.186Z,1.57
2018-09-27T17:56:53.305Z,2.07
2018-09-27T17:59:22.391Z,2.77
2018-09-27T18:01:51.771Z,1.87
2018-09-27T18:04:22.174Z,2.33
2018-09-27T18:06:51.324Z,2.27
2018-09-27T18:09:21.142Z,1.40
2018-09-27T18:11:50.323Z,2.07
2018-09-27T18:14:19.578Z,1.93
2018-09-27T18:16:50.187Z,2.07
2018-09-27T18:19:20.029Z,3.03
2018-09-27T18:21:49.205Z,2.20
2018-09-27T18:24:18.714Z,2.40
2018-09-27T18:26:48.178Z,4.40
2018-09-27T18:29:17.875Z,2.70
2018-09-27T18:31:47.303Z,2.30
2018-09-27T18:34:16.419Z,3.43
2018-09-27T18:36:46.559Z,12.80
2018-09-27T18:39:15.797Z,11.30
2018-09-27T18:41:44.884Z,5.57
2018-09-27T18:44:14.336Z,3.40
2018-09-27T18:46:43.978Z,2.47
2018-09-27T18:49:13.072Z,4.37
2018-09-27T18:51:42.169Z,3.63
2018-09-27T18:54:12.406Z,2.67
2018-09-27T18:56:41.482Z,4.57
2018-09-27T18:59:10.578Z,5.57
2018-09-27T19:01:40.681Z,5.50
2018-09-27T19:04:09.829Z,3.70
2018-09-27T19:06:39.144Z,7.33
2018-09-27T19:09:08.730Z,4.67
2018-09-27T19:11:37.833Z,7.87
2018-09-27T19:14:06.928Z,4.17
2018-09-27T19:16:36.479Z,5.17
2018-09-27T19:19:05.629Z,5.43
2018-09-27T19:21:34.729Z,8.77
2018-09-27T19:26:27.831Z,5.83
2018-09-27T19:28:56.906Z,10.77
2018-09-27T19:31:26.004Z,4.67
2018-09-27T19:33:55.432Z,5.80
2018-09-27T19:36:24.536Z,4.43
2018-09-27T19:38:53.617Z,6.33
2018-09-27T19:41:23.039Z,6.73
2018-09-27T19:43:52.164Z,5.23
2018-09-27T19:46:21.295Z,5.50
2018-09-27T19:48:50.745Z,4.93
2018-09-27T19:51:19.839Z,4.53
2018-09-27T19:53:48.917Z,6.13
2018-09-27T19:56:18.291Z,5.00
2018-09-27T19:58:47.920Z,4.70
2018-09-27T20:01:17.170Z,6.77
2018-09-27T20:03:46.389Z,7.53
2018-09-27T20:06:15.476Z,5.37
2018-09-27T20:08:44.588Z,6.10
2018-09-27T20:11:13.849Z,6.37
2018-09-27T20:13:42.923Z,7.73
2018-09-27T20:16:12.051Z,7.50
2018-09-27T20:18:41.788Z,9.97
2018-09-27T20:21:10.881Z,6.10
2018-09-27T20:23:39.985Z,10.30
2018-09-27T20:26:09.073Z,5.77
2018-09-27T20:28:38.228Z,6.80
2018-09-27T20:31:07.525Z,8.77
2018-09-27T20:33:36.796Z,6.60
2018-09-27T20:36:05.909Z,10.70
2018-09-27T20:38:34.970Z,6.47
2018-09-27T20:41:04.392Z,8.03
2018-09-27T20:43:34.383Z,8.40
2018-09-27T20:46:03.473Z,8.17
2018-09-27T20:48:32.597Z,8.53
2018-09-27T20:51:01.869Z,9.10
2018-09-27T20:53:30.985Z,8.57
2018-09-27T20:56:00.409Z,8.07
2018-09-27T20:58:29.520Z,8.97
2018-09-27T21:00:58.600Z,9.07
2018-09-27T21:03:27.863Z,5.30
2018-09-27T21:05:57.089Z,5.93
2018-09-27T21:08:26.182Z,10.00
2018-09-27T21:10:55.583Z,7.63
2018-09-27T21:13:24.659Z,6.30
2018-09-27T21:15:53.757Z,9.63
2018-09-27T21:18:23.134Z,7.70
2018-09-27T21:20:52.240Z,5.03
2018-09-27T21:23:21.330Z,6.03
2018-09-27T21:25:50.732Z,5.47
2018-09-27T21:28:19.965Z,5.40
2018-09-27T21:30:49.182Z,4.47
2018-09-27T21:33:18.274Z,6.07
2018-09-27T21:35:47.343Z,4.83
2018-09-27T21:38:16.704Z,6.50
2018-09-27T21:40:46.155Z,5.07
2018-09-27T21:43:15.269Z,5.50
2018-09-27T21:45:44.354Z,5.00
2018-09-27T21:48:13.570Z,4.57
2018-09-27T21:50:42.656Z,6.40
2018-09-27T21:53:11.735Z,4.87
2018-09-27T21:55:41.154Z,3.60
2018-09-27T21:58:10.225Z,5.13
2018-09-27T22:00:39.325Z,4.67
2018-09-27T22:03:08.766Z,3.93
2018-09-27T22:05:37.873Z,4.10
2018-09-27T22:08:06.980Z,3.17
2018-09-27T22:10:36.362Z,3.87
2018-09-27T22:13:05.389Z,5.20
2018-09-27T22:15:34.433Z,4.10
2018-09-27T22:18:03.676Z,4.17
2018-09-27T22:20:32.706Z,3.80
2018-09-27T22:23:01.745Z,3.13
2018-09-27T22:25:31.899Z,2.53
2018-09-27T22:28:01.003Z,3.80
2018-09-27T22:30:30.123Z,3.90
2018-09-27T22:32:59.316Z,4.03
2018-09-27T22:35:28.348Z,3.13
2018-09-27T22:37:57.381Z,4.73
2018-09-27T22:40:26.746Z,3.80
2018-09-27T22:42:55.806Z,5.70
2018-09-27T22:45:24.819Z,2.77
2018-09-27T22:47:54.013Z,3.57
2018-09-27T22:50:23.078Z,3.07
2018-09-27T22:52:52.126Z,6.03
2018-09-27T22:55:21.485Z,3.90
2018-09-27T22:57:50.546Z,3.60
2018-09-27T23:00:19.605Z,3.47
2018-09-27T23:02:48.782Z,7.03
2018-09-27T23:05:17.843Z,7.47
2018-09-27T23:07:46.881Z,6.90
2018-09-27T23:10:16.295Z,7.03
2018-09-27T23:12:45.354Z,7.83
2018-09-27T23:15:14.396Z,7.37
2018-09-27T23:17:43.754Z,7.93
2018-09-27T23:20:12.920Z,9.37
2018-09-27T23:22:41.941Z,10.53
2018-09-27T23:25:11.125Z,10.73
2018-09-27T23:27:40.159Z,13.13
2018-09-27T23:30:09.188Z,11.23
2018-09-27T23:32:38.376Z,8.70
2018-09-27T23:35:07.597Z,8.57
2018-09-27T23:37:36.702Z,8.33
2018-09-27T23:40:06.173Z,8.33
2018-09-27T23:42:35.207Z,12.10
2018-09-27T23:45:04.298Z,7.17
2018-09-27T23:47:33.498Z,11.47
2018-09-27T23:50:02.542Z,9.63
2018-09-27T23:52:31.598Z,9.30
2018-09-27T23:55:00.998Z,9.27
2018-09-27T23:57:30.022Z,9.40
2018-09-27T23:59:59.097Z,9.50
